OKBO2: North Canadian River at Britton Rd at OKC, OK

                                SHEF ID:       OKBO2     North Canadian River at Britton
STATION TYPE:

STAGE RIV-FLOW WTR-TEMP DIS-OXY CONDUCT BAT-LOAD
ft cfs F mg/l umho/cm volt
Ccp-Rev Ccp-Rev Ccp-Rev Ccp-Rev Ccp-Rev Ccp-Rev
(America/Chicago)
02/07 00:00 4.85 49 51.22 9.88 1184 12.07
02/07 01:00 4.84 48 50.65 9.32 1185 12.06
02/07 02:00 4.83 47 50.18 8.84 1180 12.05
02/07 03:00 4.82 46 49.62 8.55 1177 12.03
02/07 04:00 4.82 46 49.01 8.37 1170 12.01
02/07 05:00 4.82 46 48.45 8.20 1164 12.00
02/07 06:00 4.82 46 47.84 8.07 1157 11.98
02/07 07:00 4.82 46 47.16 8.02 1151 11.96
02/07 08:00 4.92 57 46.56 8.08 1143 11.95
02/07 09:00 5.10 80 46.36 8.74 1129 13.28
02/07 10:00 5.16 89 47.03 9.94 1140 13.49
02/07 11:00 5.18 91 47.98 11.19 1206 13.30
02/07 12:00 5.18 91 49.37 12.27 1268 13.24
02/07 13:00 5.16 89 51.12 13.21 1296 13.18
02/07 14:00 5.14 86 52.95 13.91 1285 13.13
02/07 15:00 5.12 83 54.41 14.48 1263 13.03
02/07 16:00 5.10 80 55.29 14.99 1224 12.96
02/07 17:00 5.08 77 55.29 14.71 1250 12.93
02/07 18:00 5.06 75 54.77 14.11 1184 12.81
02/07 19:00 5.04 72 54.16 13.00 1206 12.53
02/07 20:00 5.01 68 53.49 12.10 1144 12.35
02/07 21:00 4.98 64 52.92 11.31 1173 12.21
02/07 22:00 4.97 63 52.39 10.62 1165 12.14
02/07 23:00 4.94 60 52.02 10.01 1155 12.11
Data processed at Sun 08Feb2026 05:25 GMT

NOTICE: If you are parsing this page

Please convert to using our Data API. Starting early 2026 we will be migrating to: https://water.usace.army.mil with modern pages rendered in JavaScript. When this migration completes you will no longer be able to scrape this page! CWMSDataAPI (CDA)

Timeseries IDs (TSIDs)

TSIDs used from left to right in the data table
OKC3.Stage.Inst.1Hour.0.Ccp-Rev
OKC3.Flow.Inst.1Hour.0.Ccp-Rev
OKC3.Temp-Water.Inst.1Hour.0.Ccp-Rev
OKC3.Conc-DO.Inst.1Hour.0.Ccp-Rev
OKC3.Cond-Water.Inst.1Hour.0.Ccp-Rev
OKC3.Volt-Battery Load.Inst.1Hour.0.Ccp-Rev

                            

All information presented herein is the property of the government of the United States of America and may be revised or deleted at any time without prior notice. Dissemination of this information without the expressed written consent of the Public Affairs Office, Tulsa District U.S. Army Corps of Engineers is strictly prohibited. These data are gathered electronically and, as presented, have NOT undergone any form of quality control. These data are NOT guaranteed to be valid or correct.